CheckWX is a tool to help pilots better visualize weather data.  It is not intended as a substitute for an official pre-flight weather briefing.

12:26:33 UTC

CYUY METAR
Rouyn-Noranda Airport
Rouyn-Noranda, Canada
Current

27 mins ago

CYUY 261200Z 24005KT 15SM FEW230 M18/M22 A3028 RMK CI1 CI TR SLP283
Observed
Mar-26 @ 12:00 UTC
Wind
  • 240° at 5 KTS
Visibility
15 SM
Flight Rules
VFR
Cloud Levels
  • Few at 23,000' AGL
Temperature
-18°C / -0°F
Dewpoint
-22°C / -8°F
Humidity
71%
Altimeter
30.28" Hg
Pressure
1028.3 hPa
Previous

1 hour ago

CYUY 261100Z 23003KT 15SM SKC M19/M22 A3026 RMK SLP277
Observed
Mar-26 @ 11:00 UTC
Wind
  • 230° at 3 KTS
Visibility
15 SM
Flight Rules
VFR
Cloud Levels
  • Clear skies
Temperature
-19°C / -2°F
Dewpoint
-22°C / -8°F
Humidity
77%
Altimeter
30.26" Hg
Pressure
1027.7 hPa
Previous

2 hours ago

CYUY 261000Z VRB02KT 15SM SKC M17/M20 A3025 RMK SLP272
Observed
Mar-26 @ 10:00 UTC
Wind
  • Variable at 2 KTS
Visibility
15 SM
Flight Rules
VFR
Cloud Levels
  • Clear skies
Temperature
-17°C / 1°F
Dewpoint
-20°C / -4°F
Humidity
78%
Altimeter
30.25" Hg
Pressure
1027.2 hPa